createdAt,value
2022-07-29T00:01:42.589Z,101075.40
2022-07-29T00:04:11.232Z,101072.60
2022-07-29T00:06:42.366Z,101080.40
2022-07-29T00:09:10.227Z,101079.20
2022-07-29T00:11:37.810Z,101081.40
2022-07-29T00:14:04.751Z,101085.00
2022-07-29T00:16:32.172Z,101084.80
2022-07-29T00:19:02.467Z,101085.20
2022-07-29T00:21:30.712Z,101079.80
2022-07-29T00:23:58.623Z,101084.20
2022-07-29T00:26:32.942Z,101085.60
2022-07-29T00:29:32.294Z,101085.80
2022-07-29T00:31:54.417Z,101088.60
2022-07-29T00:34:40.463Z,101089.00
2022-07-29T00:37:11.327Z,101091.40
2022-07-29T00:39:38.045Z,101090.80
2022-07-29T00:42:07.058Z,101086.80
2022-07-29T00:44:41.845Z,101078.00
2022-07-29T00:47:12.162Z,101072.00
2022-07-29T00:49:41.591Z,101069.00
2022-07-29T00:52:11.300Z,101067.40
2022-07-29T00:54:44.203Z,101069.80
2022-07-29T00:57:14.327Z,101071.80
2022-07-29T00:59:45.126Z,101070.60
2022-07-29T01:02:12.953Z,101070.40
2022-07-29T01:04:40.212Z,101075.80
2022-07-29T01:07:07.987Z,101077.40
2022-07-29T01:09:45.352Z,101073.20
2022-07-29T01:12:23.384Z,101077.00
2022-07-29T01:14:51.140Z,101076.60
2022-07-29T01:18:04.600Z,101069.00
2022-07-29T01:21:19.571Z,101072.80
2022-07-29T01:24:23.042Z,101070.80
2022-07-29T01:27:25.827Z,101069.20
2022-07-29T01:30:04.476Z,101069.20
2022-07-29T01:32:38.964Z,101069.00
2022-07-29T01:35:24.805Z,101072.00
2022-07-29T01:38:20.899Z,101069.40
2022-07-29T01:40:54.551Z,101073.20
2022-07-29T01:43:31.769Z,101077.20
2022-07-29T01:46:06.451Z,101079.40
2022-07-29T01:48:46.107Z,101079.80
2022-07-29T01:51:31.273Z,101076.60
2022-07-29T01:54:21.404Z,101075.20
2022-07-29T01:56:53.776Z,101074.00
2022-07-29T01:59:24.144Z,101074.80
2022-07-29T02:01:55.620Z,101077.40
2022-07-29T02:04:29.720Z,101080.40
2022-07-29T02:07:06.252Z,101072.40
2022-07-29T02:09:38.422Z,101076.80
2022-07-29T02:12:08.949Z,101078.00
2022-07-29T02:14:48.114Z,101076.20
2022-07-29T02:17:23.056Z,101080.80
2022-07-29T02:20:02.166Z,101081.40
2022-07-29T02:22:34.413Z,101078.60
2022-07-29T02:25:01.852Z,101078.80
2022-07-29T02:27:38.192Z,101076.40
2022-07-29T02:30:10.971Z,101078.40
2022-07-29T02:32:49.806Z,101082.80
2022-07-29T02:35:19.268Z,101084.80
2022-07-29T02:38:07.175Z,101082.40
2022-07-29T02:40:39.783Z,101080.00
2022-07-29T02:43:08.550Z,101077.60
2022-07-29T02:45:36.465Z,101076.20
2022-07-29T02:48:12.622Z,101079.20
2022-07-29T02:50:48.415Z,101086.20
2022-07-29T02:53:23.392Z,101086.20
2022-07-29T02:56:10.053Z,101090.00
2022-07-29T02:58:45.991Z,101090.80
2022-07-29T03:01:22.292Z,101088.40
2022-07-29T03:03:53.285Z,101081.20
2022-07-29T03:06:28.810Z,101078.80
2022-07-29T03:09:13.576Z,101073.60
2022-07-29T03:11:55.985Z,101068.80
2022-07-29T03:14:24.067Z,101075.60
2022-07-29T03:16:56.477Z,101075.40
2022-07-29T03:19:23.269Z,101077.20
2022-07-29T03:21:52.103Z,101080.20
2022-07-29T03:24:41.444Z,101086.40
2022-07-29T03:27:09.686Z,101085.00
2022-07-29T03:29:38.926Z,101085.00
2022-07-29T03:32:07.361Z,101087.20
2022-07-29T03:34:39.557Z,101087.80
2022-07-29T03:37:07.243Z,101085.00
2022-07-29T03:39:42.259Z,101087.80
2022-07-29T03:42:14.359Z,101080.60
2022-07-29T03:44:45.245Z,101079.60
2022-07-29T03:47:15.479Z,101078.20
2022-07-29T03:49:44.926Z,101084.00
2022-07-29T03:52:11.642Z,101084.60
2022-07-29T03:54:39.529Z,101084.00
2022-07-29T03:57:07.942Z,101084.20
2022-07-29T03:59:36.184Z,101084.80
2022-07-29T04:02:06.403Z,101083.60
2022-07-29T04:04:37.498Z,101086.00
2022-07-29T04:07:05.446Z,101088.20
2022-07-29T04:09:34.920Z,101088.00
2022-07-29T04:12:04.081Z,101088.00
2022-07-29T04:14:35.043Z,101087.80
2022-07-29T04:17:03.203Z,101083.40
2022-07-29T04:19:32.111Z,101088.00
2022-07-29T04:22:01.432Z,101091.60
2022-07-29T04:24:28.552Z,101089.40
2022-07-29T04:26:55.280Z,101089.20
2022-07-29T04:29:22.785Z,101090.80
2022-07-29T04:31:49.930Z,101089.40
2022-07-29T04:34:20.284Z,101092.00
2022-07-29T04:36:47.527Z,101094.20
2022-07-29T04:39:18.072Z,101087.40
2022-07-29T04:41:47.674Z,101087.20
2022-07-29T04:44:16.141Z,101087.00
2022-07-29T04:46:46.676Z,101087.60
2022-07-29T04:49:13.543Z,101094.80
2022-07-29T04:51:41.549Z,101100.40
2022-07-29T04:54:10.590Z,101101.80
2022-07-29T04:56:38.567Z,101095.60
2022-07-29T04:59:05.255Z,101099.60
2022-07-29T05:01:34.236Z,101106.00
2022-07-29T05:04:03.306Z,101106.60
2022-07-29T05:06:34.479Z,101107.60
2022-07-29T05:09:02.674Z,101104.40
2022-07-29T05:11:30.534Z,101105.00
2022-07-29T05:13:58.611Z,101107.80
2022-07-29T05:16:25.517Z,101115.80
2022-07-29T05:18:57.395Z,101122.20
2022-07-29T05:21:25.540Z,101117.40
2022-07-29T05:23:52.078Z,101121.20
2022-07-29T05:26:19.449Z,101124.40
2022-07-29T05:28:50.785Z,101125.40
2022-07-29T05:31:18.128Z,101131.00
2022-07-29T05:33:44.896Z,101126.80
2022-07-29T05:36:12.307Z,101128.80
2022-07-29T05:38:39.905Z,101126.00
2022-07-29T05:41:07.380Z,101122.80
2022-07-29T05:43:36.612Z,101128.40
2022-07-29T05:46:04.834Z,101126.80
2022-07-29T05:48:32.757Z,101121.40
2022-07-29T05:51:02.610Z,101119.00
2022-07-29T05:53:32.303Z,101110.20
2022-07-29T05:56:02.942Z,101107.60
2022-07-29T05:58:31.319Z,101109.80
2022-07-29T06:01:01.617Z,101106.20
2022-07-29T06:03:29.493Z,101107.20
2022-07-29T06:05:58.402Z,101103.60
2022-07-29T06:08:26.696Z,101095.80
2022-07-29T06:10:55.491Z,101093.60
2022-07-29T06:13:28.938Z,101095.20
2022-07-29T06:15:56.782Z,101103.60
2022-07-29T06:18:24.882Z,101104.00
2022-07-29T06:20:53.410Z,101105.60
2022-07-29T06:23:22.975Z,101105.20
2022-07-29T06:25:53.867Z,101101.40
2022-07-29T06:28:20.806Z,101099.20
2022-07-29T06:30:51.541Z,101102.00
2022-07-29T06:33:20.464Z,101094.80
2022-07-29T06:35:53.479Z,101094.40
2022-07-29T06:38:30.973Z,101103.00
2022-07-29T06:41:05.533Z,101099.20
2022-07-29T06:43:52.449Z,101107.00
2022-07-29T06:46:22.694Z,101106.60
2022-07-29T06:48:53.325Z,101107.20
2022-07-29T06:51:22.443Z,101106.40
2022-07-29T06:53:59.418Z,101105.60
2022-07-29T06:56:40.263Z,101109.60
2022-07-29T06:59:09.372Z,101109.40
2022-07-29T07:01:44.769Z,101108.00
2022-07-29T07:04:12.583Z,101108.80
2022-07-29T07:06:39.357Z,101107.40
2022-07-29T07:09:12.179Z,101107.00
2022-07-29T07:11:41.452Z,101105.00
2022-07-29T07:14:08.315Z,101098.60
2022-07-29T07:16:37.034Z,101093.80
2022-07-29T07:19:06.572Z,101097.80
2022-07-29T07:21:37.914Z,101102.60
2022-07-29T07:24:06.969Z,101094.80
2022-07-29T07:26:38.322Z,101097.80
2022-07-29T07:29:09.516Z,101100.40
2022-07-29T07:31:37.203Z,101102.20
2022-07-29T07:34:04.656Z,101103.60
2022-07-29T07:36:31.433Z,101103.00
2022-07-29T07:38:58.410Z,101096.60
2022-07-29T07:41:25.790Z,101099.80
2022-07-29T07:43:53.857Z,101098.20
2022-07-29T07:46:21.805Z,101104.80
2022-07-29T07:48:51.776Z,101099.80
2022-07-29T07:51:19.687Z,101103.20
2022-07-29T07:53:50.980Z,101111.80
2022-07-29T07:56:17.580Z,101111.00
2022-07-29T07:58:46.239Z,101101.40
2022-07-29T08:01:17.040Z,101109.60
2022-07-29T08:03:44.571Z,101107.00
2022-07-29T08:06:11.852Z,101105.60
2022-07-29T08:08:40.673Z,101108.20
2022-07-29T08:11:09.952Z,101107.80
2022-07-29T08:13:42.975Z,101105.00
2022-07-29T08:16:13.219Z,101102.00
2022-07-29T08:18:45.332Z,101105.00
2022-07-29T08:21:15.092Z,101103.60
2022-07-29T08:23:58.644Z,101097.00
2022-07-29T08:26:27.657Z,101094.60
2022-07-29T08:28:55.754Z,101101.80
2022-07-29T08:31:22.491Z,101102.00
2022-07-29T08:33:52.767Z,101105.40
2022-07-29T08:36:24.322Z,101103.20
2022-07-29T08:38:54.335Z,101105.60
2022-07-29T08:41:56.590Z,101101.00
2022-07-29T08:44:31.009Z,101104.80
2022-07-29T08:46:57.917Z,101105.60
2022-07-29T08:49:25.721Z,101105.40
2022-07-29T08:51:55.019Z,101097.20
2022-07-29T08:54:23.903Z,101102.00
2022-07-29T08:56:55.721Z,101102.00
2022-07-29T08:59:28.412Z,101101.00
2022-07-29T09:02:00.790Z,101095.60
2022-07-29T09:04:32.052Z,101097.80
2022-07-29T09:07:03.473Z,101087.60
2022-07-29T09:09:32.723Z,101084.80
2022-07-29T09:12:01.795Z,101082.60
2022-07-29T09:14:30.538Z,101083.20
2022-07-29T09:16:59.388Z,101080.00
2022-07-29T09:19:36.414Z,101079.40
2022-07-29T09:22:11.628Z,101084.60
2022-07-29T09:24:47.667Z,101088.40
2022-07-29T09:27:26.758Z,101088.20
2022-07-29T09:30:05.598Z,101090.60
2022-07-29T09:32:34.129Z,101081.20
2022-07-29T09:35:25.650Z,101069.80
2022-07-29T09:37:58.647Z,101073.60
2022-07-29T09:40:28.825Z,101070.80
2022-07-29T09:42:57.650Z,101066.20
2022-07-29T09:45:32.813Z,101071.80
2022-07-29T09:48:14.635Z,101068.60
2022-07-29T09:50:45.638Z,101070.80
2022-07-29T09:53:12.459Z,101065.00
2022-07-29T09:55:51.932Z,101071.20
2022-07-29T09:58:21.078Z,101074.20
2022-07-29T10:00:50.975Z,101074.40
2022-07-29T10:03:20.896Z,101069.80
2022-07-29T10:06:11.424Z,101069.40
2022-07-29T10:08:45.003Z,101065.00
2022-07-29T10:11:19.605Z,101058.80
2022-07-29T10:13:49.101Z,101061.40
2022-07-29T10:16:19.385Z,101056.00
2022-07-29T10:18:48.353Z,101051.80
2022-07-29T10:21:22.506Z,101050.80
2022-07-29T10:24:14.628Z,101043.80
2022-07-29T10:26:44.106Z,101043.40
2022-07-29T10:29:12.975Z,101041.00
2022-07-29T10:32:05.242Z,101045.80
2022-07-29T10:35:16.568Z,101049.20
2022-07-29T10:38:50.436Z,101038.40
2022-07-29T10:42:07.870Z,101044.00
2022-07-29T10:44:39.776Z,101041.80
2022-07-29T10:47:08.301Z,101042.60
2022-07-29T10:49:35.018Z,101046.00
2022-07-29T10:52:42.027Z,101041.40
2022-07-29T10:58:38.269Z,101035.40
2022-07-29T11:01:37.329Z,101035.00
2022-07-29T11:04:05.824Z,101036.80
2022-07-29T11:07:10.840Z,101034.60
2022-07-29T11:09:40.070Z,101030.00
2022-07-29T11:12:39.735Z,101022.40
2022-07-29T11:15:19.058Z,101026.80
2022-07-29T11:17:59.283Z,101029.00
2022-07-29T11:20:54.049Z,101027.00
2022-07-29T11:23:34.076Z,101022.00
2022-07-29T11:26:25.415Z,101022.80
2022-07-29T11:29:24.755Z,101019.40
2022-07-29T11:31:58.493Z,101019.20
2022-07-29T11:34:32.546Z,101018.40
2022-07-29T11:37:08.990Z,101019.40
2022-07-29T11:40:00.242Z,101011.80
2022-07-29T11:42:33.039Z,101014.20
2022-07-29T11:45:43.798Z,101012.60
2022-07-29T11:48:28.500Z,101006.00
2022-07-29T11:50:53.505Z,101002.20
2022-07-29T11:53:21.222Z,100999.20
2022-07-29T11:55:55.509Z,101002.80
2022-07-29T11:58:25.002Z,101005.40
2022-07-29T12:00:55.503Z,100993.40
2022-07-29T12:03:33.348Z,100994.00
2022-07-29T12:06:13.174Z,101001.20
2022-07-29T12:08:45.452Z,100998.00
2022-07-29T12:11:20.883Z,101001.60
2022-07-29T12:13:51.755Z,100996.60
2022-07-29T12:16:25.850Z,100999.20
2022-07-29T12:19:03.473Z,100995.20
2022-07-29T12:21:59.395Z,100994.40
2022-07-29T12:24:45.072Z,100990.60
2022-07-29T12:27:12.401Z,100990.60
2022-07-29T12:29:47.952Z,101000.60
2022-07-29T12:32:19.900Z,100996.00
2022-07-29T12:34:47.907Z,100993.80
2022-07-29T12:37:18.296Z,100989.20
2022-07-29T12:39:47.355Z,100983.80
2022-07-29T12:42:18.694Z,100980.60
2022-07-29T12:44:50.547Z,100979.80
2022-07-29T12:47:19.206Z,100982.20
2022-07-29T12:49:51.286Z,100981.20
2022-07-29T12:52:30.151Z,100978.60
2022-07-29T12:54:58.637Z,100983.20
2022-07-29T12:57:29.571Z,100986.20
2022-07-29T13:00:17.344Z,100977.40
2022-07-29T13:02:55.980Z,100980.20
2022-07-29T13:05:23.769Z,100979.40
2022-07-29T13:07:55.628Z,100978.60
2022-07-29T13:10:26.336Z,100968.80
2022-07-29T13:13:16.866Z,100968.40
2022-07-29T13:15:49.469Z,100965.20
2022-07-29T13:18:36.542Z,100964.80
2022-07-29T13:21:13.910Z,100962.00
2022-07-29T13:23:41.668Z,100960.80
2022-07-29T13:26:10.305Z,100957.20
2022-07-29T13:28:40.313Z,100960.80
2022-07-29T13:31:11.550Z,100949.60
2022-07-29T13:33:40.149Z,100948.20
2022-07-29T13:36:09.973Z,100962.80
2022-07-29T13:38:37.841Z,100953.00
2022-07-29T13:41:07.262Z,100954.60
2022-07-29T13:43:36.114Z,100956.20
2022-07-29T13:46:04.864Z,100958.60
2022-07-29T13:48:31.935Z,100958.00
2022-07-29T13:51:01.592Z,100952.40
2022-07-29T13:53:37.334Z,100940.40
2022-07-29T13:56:06.545Z,100950.60
2022-07-29T13:58:35.218Z,100951.60
2022-07-29T14:01:04.226Z,100951.40
2022-07-29T14:03:31.505Z,100951.00
2022-07-29T14:06:00.431Z,100949.00
2022-07-29T14:08:32.728Z,100945.00
2022-07-29T14:10:59.323Z,100950.00
2022-07-29T14:13:26.423Z,100948.40
2022-07-29T14:15:54.926Z,100958.00
2022-07-29T14:18:21.615Z,100964.40
2022-07-29T14:20:48.621Z,100958.60
2022-07-29T14:23:16.265Z,100964.20
2022-07-29T14:25:47.887Z,100975.00
2022-07-29T14:28:21.086Z,100964.60
2022-07-29T14:30:47.647Z,100963.00
2022-07-29T14:33:14.582Z,100958.60
2022-07-29T14:35:42.151Z,100964.40
2022-07-29T14:38:08.911Z,100949.00
2022-07-29T14:40:37.696Z,100950.00
2022-07-29T14:43:06.631Z,100945.80
2022-07-29T14:45:35.749Z,100944.00
2022-07-29T14:48:02.840Z,100943.20
2022-07-29T14:50:31.915Z,100937.60
2022-07-29T14:53:00.763Z,100938.20
2022-07-29T14:55:27.919Z,100930.40
2022-07-29T14:58:08.715Z,100931.00
2022-07-29T15:00:39.788Z,100921.60
2022-07-29T15:03:06.857Z,100914.60
2022-07-29T15:05:39.382Z,100910.60
2022-07-29T15:08:07.767Z,100905.80
2022-07-29T15:10:35.461Z,100904.20
2022-07-29T15:13:05.848Z,100894.60
2022-07-29T15:15:33.863Z,100891.40
2022-07-29T15:18:03.748Z,100888.40
2022-07-29T15:20:30.713Z,100881.00
2022-07-29T15:22:57.775Z,100880.80
2022-07-29T15:25:28.177Z,100880.60
2022-07-29T15:28:02.678Z,100880.40
2022-07-29T15:30:33.347Z,100875.80
2022-07-29T15:33:04.615Z,100873.80
2022-07-29T15:35:33.151Z,100872.00
2022-07-29T15:38:01.626Z,100874.00
2022-07-29T15:40:33.249Z,100865.00
2022-07-29T15:43:05.889Z,100868.20
2022-07-29T15:45:41.101Z,100858.40
2022-07-29T15:48:14.749Z,100855.00
2022-07-29T15:51:08.360Z,100859.60
2022-07-29T15:53:36.752Z,100862.40
2022-07-29T15:56:03.903Z,100852.40
2022-07-29T15:58:31.498Z,100855.20
2022-07-29T16:00:59.663Z,100855.20
2022-07-29T16:03:27.513Z,100853.40
2022-07-29T16:05:57.605Z,100855.20
2022-07-29T16:08:25.341Z,100851.80
2022-07-29T16:10:52.336Z,100856.00
2022-07-29T16:13:18.932Z,100856.20
2022-07-29T16:16:02.874Z,100858.80
2022-07-29T16:18:30.522Z,100857.40
2022-07-29T16:20:58.531Z,100855.60
2022-07-29T16:23:24.947Z,100852.40
2022-07-29T16:25:59.701Z,100849.60
2022-07-29T16:28:27.953Z,100849.80
2022-07-29T16:30:54.532Z,100849.00
2022-07-29T16:33:21.126Z,100849.00
2022-07-29T16:35:47.539Z,100851.80
2022-07-29T16:38:13.996Z,100853.60
2022-07-29T16:40:40.853Z,100849.40
2022-07-29T16:43:07.629Z,100854.00
2022-07-29T16:45:46.507Z,100852.80
2022-07-29T16:48:14.589Z,100847.40
2022-07-29T16:50:41.311Z,100849.60
2022-07-29T16:53:10.441Z,100854.20
2022-07-29T16:55:37.395Z,100862.40
2022-07-29T16:58:04.037Z,100866.20
2022-07-29T17:00:30.993Z,100870.00
2022-07-29T17:02:59.328Z,100867.80
2022-07-29T17:05:27.058Z,100870.20
2022-07-29T17:07:53.448Z,100869.00
2022-07-29T17:10:21.552Z,100868.80
2022-07-29T17:12:48.023Z,100864.80
2022-07-29T17:15:17.754Z,100869.40
2022-07-29T17:17:55.439Z,100872.20
2022-07-29T17:20:23.623Z,100870.20
2022-07-29T17:22:50.138Z,100874.80
2022-07-29T17:25:20.658Z,100873.00
2022-07-29T17:27:50.835Z,100870.00
2022-07-29T17:30:17.822Z,100865.20
2022-07-29T17:32:44.347Z,100864.00
2022-07-29T17:35:29.591Z,100863.00
2022-07-29T17:37:56.323Z,100863.60
2022-07-29T17:40:22.958Z,100869.80
2022-07-29T17:42:49.543Z,100866.00
2022-07-29T17:45:16.105Z,100870.80
2022-07-29T17:47:43.867Z,100875.00
2022-07-29T17:50:10.505Z,100877.20
2022-07-29T17:52:38.420Z,100879.40
2022-07-29T17:55:06.505Z,100873.40
2022-07-29T17:57:33.428Z,100873.20
2022-07-29T17:59:59.863Z,100868.40
2022-07-29T18:02:26.817Z,100870.20
2022-07-29T18:04:55.026Z,100871.80
2022-07-29T18:07:21.421Z,100872.00
2022-07-29T18:09:47.849Z,100873.00
2022-07-29T18:12:14.327Z,100869.60
2022-07-29T18:14:40.800Z,100875.40
2022-07-29T18:17:07.965Z,100873.60
2022-07-29T18:19:34.471Z,100875.00
2022-07-29T18:22:05.333Z,100872.40
2022-07-29T18:24:32.430Z,100869.00
2022-07-29T18:26:59.236Z,100865.60
2022-07-29T18:29:28.157Z,100868.60
2022-07-29T18:31:54.651Z,100873.80
2022-07-29T18:34:21.067Z,100872.40
2022-07-29T18:36:47.581Z,100870.80
2022-07-29T18:39:19.154Z,100878.40
2022-07-29T18:41:51.026Z,100882.00
2022-07-29T18:44:19.903Z,100882.80
2022-07-29T18:46:49.146Z,100876.40
2022-07-29T18:49:15.726Z,100871.60
2022-07-29T18:51:42.599Z,100869.40
2022-07-29T18:54:09.872Z,100866.60
2022-07-29T18:56:36.676Z,100875.60
2022-07-29T18:59:03.579Z,100876.80
2022-07-29T19:01:31.793Z,100874.40
2022-07-29T19:03:59.488Z,100880.20
2022-07-29T19:06:26.150Z,100881.60
2022-07-29T19:08:52.867Z,100884.00
2022-07-29T19:11:19.260Z,100880.80
2022-07-29T19:13:45.769Z,100883.60
2022-07-29T19:16:13.371Z,100882.60
2022-07-29T19:18:40.664Z,100891.40
2022-07-29T19:21:07.084Z,100898.20
2022-07-29T19:24:01.746Z,100896.40
2022-07-29T19:26:20.534Z,100894.60
2022-07-29T19:28:48.777Z,100890.00
2022-07-29T19:31:15.958Z,100890.20
2022-07-29T19:33:42.477Z,100888.60
2022-07-29T19:36:08.893Z,100890.40
2022-07-29T19:38:37.523Z,100893.60
2022-07-29T19:41:05.530Z,100892.80
2022-07-29T19:43:49.998Z,100889.40
2022-07-29T19:46:23.779Z,100886.20
2022-07-29T19:48:50.841Z,100877.80
2022-07-29T19:51:17.366Z,100876.80
2022-07-29T19:53:43.954Z,100883.60
2022-07-29T19:56:10.364Z,100888.20
2022-07-29T19:58:44.162Z,100892.60
2022-07-29T20:01:11.838Z,100896.20
2022-07-29T20:03:44.006Z,100897.00
2022-07-29T20:06:10.445Z,100896.80
2022-07-29T20:08:36.980Z,100900.20
2022-07-29T20:11:03.710Z,100901.80
2022-07-29T20:13:32.436Z,100902.00
2022-07-29T20:16:00.560Z,100897.20
2022-07-29T20:18:27.004Z,100894.60
2022-07-29T20:20:55.519Z,100900.60
2022-07-29T20:23:22.600Z,100897.60
2022-07-29T20:25:49.239Z,100898.20
2022-07-29T20:28:15.721Z,100890.20
2022-07-29T20:30:42.233Z,100888.40
2022-07-29T20:33:09.272Z,100890.80
2022-07-29T20:35:35.770Z,100893.00
2022-07-29T20:38:02.154Z,100890.60
2022-07-29T20:40:28.664Z,100889.40
2022-07-29T20:42:55.745Z,100886.20
2022-07-29T20:45:23.202Z,100885.80
2022-07-29T20:47:51.788Z,100884.60
2022-07-29T20:50:24.101Z,100880.40
2022-07-29T20:52:52.265Z,100881.80
2022-07-29T20:55:18.825Z,100878.20
2022-07-29T20:57:45.288Z,100875.40
2022-07-29T21:00:12.413Z,100876.80
2022-07-29T21:02:38.917Z,100877.00
2022-07-29T21:05:06.171Z,100876.20
2022-07-29T21:07:32.629Z,100878.40
2022-07-29T21:09:59.085Z,100877.20
2022-07-29T21:12:25.599Z,100876.60
2022-07-29T21:14:52.057Z,100874.40
2022-07-29T21:17:22.479Z,100871.20
2022-07-29T21:19:51.882Z,100871.80
2022-07-29T21:22:21.059Z,100869.00
2022-07-29T21:24:47.925Z,100861.60
2022-07-29T21:27:32.908Z,100865.40
2022-07-29T21:29:59.737Z,100866.80
2022-07-29T21:32:27.534Z,100862.00
2022-07-29T21:34:57.343Z,100861.60
2022-07-29T21:37:24.041Z,100862.20
2022-07-29T21:39:50.590Z,100859.80
2022-07-29T21:42:17.085Z,100864.20
2022-07-29T21:44:43.835Z,100862.60
2022-07-29T21:47:11.161Z,100861.60
2022-07-29T21:49:38.455Z,100860.40
2022-07-29T21:52:05.581Z,100857.40
2022-07-29T21:54:34.581Z,100857.40
2022-07-29T21:57:01.178Z,100856.80
2022-07-29T21:59:27.586Z,100856.20
2022-07-29T22:01:54.249Z,100852.80
2022-07-29T22:04:20.948Z,100853.40
2022-07-29T22:06:47.476Z,100853.40
2022-07-29T22:09:13.904Z,100848.60
2022-07-29T22:11:41.329Z,100848.60
2022-07-29T22:14:07.717Z,100850.80
2022-07-29T22:16:34.683Z,100852.80
2022-07-29T22:19:03.155Z,100847.20
2022-07-29T22:21:30.236Z,100839.20
2022-07-29T22:23:56.729Z,100841.20
2022-07-29T22:26:23.326Z,100837.80
2022-07-29T22:28:49.849Z,100844.00
2022-07-29T22:31:16.280Z,100850.00
2022-07-29T22:33:42.803Z,100846.20
2022-07-29T22:36:09.819Z,100839.60
2022-07-29T22:38:36.440Z,100837.20
2022-07-29T22:41:03.441Z,100830.40
2022-07-29T22:43:30.099Z,100831.40
2022-07-29T22:45:56.604Z,100827.80
2022-07-29T22:48:23.075Z,100830.40
2022-07-29T22:50:49.442Z,100828.40
2022-07-29T22:53:16.146Z,100832.60
2022-07-29T22:55:42.633Z,100834.80
2022-07-29T22:58:09.108Z,100834.80
2022-07-29T23:00:35.760Z,100835.60
2022-07-29T23:03:02.232Z,100834.80
2022-07-29T23:05:28.669Z,100833.60
2022-07-29T23:07:55.355Z,100832.40
2022-07-29T23:10:22.194Z,100831.60
2022-07-29T23:12:48.760Z,100831.20
2022-07-29T23:15:15.198Z,100831.00
2022-07-29T23:17:41.670Z,100820.20
2022-07-29T23:20:09.938Z,100831.80
2022-07-29T23:22:36.712Z,100820.40
2022-07-29T23:25:05.564Z,100817.20
2022-07-29T23:27:32.211Z,100810.40
2022-07-29T23:29:58.653Z,100815.20
2022-07-29T23:32:25.032Z,100815.40
2022-07-29T23:34:51.444Z,100814.20
2022-07-29T23:37:17.917Z,100811.00
2022-07-29T23:39:44.312Z,100811.40
2022-07-29T23:42:10.752Z,100812.40
2022-07-29T23:44:37.166Z,100806.40
2022-07-29T23:47:03.984Z,100810.40
2022-07-29T23:49:30.754Z,100813.80
2022-07-29T23:51:57.195Z,100812.00
2022-07-29T23:54:23.589Z,100815.00
2022-07-29T23:56:50.039Z,100815.20
2022-07-29T23:59:16.435Z,100813.00
